Time;durP1;ratioP1;P1;durP2;ratioP2;P2;SDS_P1;SDS_P2;PMS_P1;PMS_P2;Temp;Humidity;BMP_temperature;BMP_pressure;BME280_temperature;BME280_humidity;BME280_pressure;Samples;Min_cycle;Max_cycle;Signal;HPM_P1;HPM_P2
2022/06/25 00:01:36;;;;;;;2.00;0.70;;;;;;;20.73;77.72;98436.97;5044691;28;20288;-60
2022/06/25 00:05:27;;;;;;;2.97;0.80;;;;;;;20.73;77.11;98436.97;5044774;28;20513;-59
2022/06/25 00:06:58;;;;;;;6.07;0.70;;;;;;;20.86;77.79;98448.19;5044339;28;20363;-60
2022/06/25 00:09:29;;;;;;;2.77;0.80;;;;;;;20.77;77.87;98449.84;5045226;28;20539;-59
2022/06/25 00:14:51;;;;;;;4.20;0.70;;;;;;;20.90;78.21;98454.94;5045101;28;20288;-60
2022/06/25 00:17:22;;;;;;;4.83;0.73;;;;;;;20.82;77.73;98462.72;5045122;28;20276;-60
2022/06/25 00:19:53;;;;;;;2.77;0.80;;;;;;;20.66;77.85;98458.72;5045220;28;20493;-60
2022/06/25 00:22:23;;;;;;;1.27;0.70;;;;;;;20.51;78.21;98470.63;5045305;28;20280;-60
2022/06/25 00:24:54;;;;;;;2.47;0.80;;;;;;;20.43;78.68;98467.81;5045345;28;20280;-60
2022/06/25 00:27:25;;;;;;;6.47;0.90;;;;;;;20.26;79.70;98470.09;5045663;28;20796;-60
2022/06/25 00:29:58;;;;;;;3.77;0.90;;;;;;;20.12;79.80;98481.03;5045174;28;20315;-60
2022/06/25 00:32:28;;;;;;;5.60;0.90;;;;;;;19.98;80.62;98484.00;5045138;28;20510;-61
2022/06/25 00:34:59;;;;;;;4.57;1.30;;;;;;;19.76;81.13;98476.97;5045197;28;20288;-60
2022/06/25 00:37:30;;;;;;;4.90;0.93;;;;;;;19.75;81.21;98493.84;5044967;28;20386;-60
2022/06/25 00:40:01;;;;;;;4.27;1.17;;;;;;;19.67;81.21;98499.78;5045209;28;20295;-60
2022/06/25 00:42:32;;;;;;;3.50;0.90;;;;;;;19.62;81.13;98504.59;5044388;28;20566;-60
2022/06/25 00:45:05;;;;;;;14.27;1.83;;;;;;;19.64;81.41;98500.00;5045064;28;20299;-60
2022/06/25 00:47:35;;;;;;;6.37;1.40;;;;;;;19.66;81.93;98495.41;5044495;28;20284;-59
2022/06/25 00:50:08;;;;;;;6.80;2.80;;;;;;;19.64;82.16;98500.00;5045028;28;20280;-60
2022/06/25 00:52:44;;;;;;;7.23;1.30;;;;;;;19.63;82.12;98506.25;5045256;28;20464;-60
2022/06/25 00:55:19;;;;;;;9.70;1.40;;;;;;;19.83;82.66;98513.44;5044841;28;20299;-60
2022/06/25 00:57:52;;;;;;;4.37;0.80;;;;;;;19.85;80.62;98504.53;5044582;28;20280;-60
2022/06/25 01:00:25;;;;;;;3.07;1.30;;;;;;;20.03;77.67;98530.34;5044544;28;20283;-58
2022/06/25 01:02:56;;;;;;;0.57;0.50;;;;;;;20.09;76.33;98534.28;5044671;28;20299;-59
2022/06/25 01:05:26;;;;;;;0.90;0.50;;;;;;;20.19;75.67;98529.06;5045357;28;20471;-59
2022/06/25 01:07:57;;;;;;;1.37;0.70;;;;;;;20.28;75.12;98527.47;5045423;28;20291;-59
2022/06/25 01:10:27;;;;;;;0.87;0.47;;;;;;;20.28;73.93;98538.09;5044894;28;20334;-59
2022/06/25 01:12:58;;;;;;;2.53;1.10;;;;;;;20.20;74.41;98539.56;5044741;28;20312;-59
2022/06/25 01:15:32;;;;;;;1.30;0.50;;;;;;;20.14;74.21;98536.56;5044809;28;20276;-60
2022/06/25 01:18:02;;;;;;;0.53;0.50;;;;;;;20.10;73.39;98533.34;5044866;28;20291;-59
2022/06/25 01:20:34;;;;;;;2.33;0.60;;;;;;;20.13;73.52;98534.91;5044805;28;20280;-60
2022/06/25 01:23:06;;;;;;;1.07;0.50;;;;;;;20.09;73.11;98533.47;5044766;28;20272;-59
2022/06/25 01:25:37;;;;;;;2.60;0.60;;;;;;;19.97;74.10;98514.13;5044570;28;20342;-59
2022/06/25 01:28:08;;;;;;;5.80;0.57;;;;;;;20.13;74.84;98541.03;5044839;28;21026;-60
2022/06/25 01:30:39;;;;;;;1.17;0.50;;;;;;;20.07;72.96;98540.69;5045007;28;20291;-60
2022/06/25 01:33:10;;;;;;;2.07;0.50;;;;;;;19.93;72.72;98545.34;5044974;28;20358;-60
2022/06/25 01:35:41;;;;;;;2.03;0.70;;;;;;;19.90;73.06;98540.28;5044693;28;20287;-59
2022/06/25 01:38:13;;;;;;;4.37;0.67;;;;;;;19.91;73.48;98543.78;5044882;28;20286;-59
2022/06/25 01:40:44;;;;;;;1.83;1.00;;;;;;;19.90;73.34;98544.75;5044147;28;20314;-59
2022/06/25 01:43:14;;;;;;;5.47;3.03;;;;;;;19.78;73.33;98547.44;5043996;28;20290;-59
2022/06/25 01:45:45;;;;;;;11.03;7.20;;;;;;;19.68;73.26;98546.50;5044434;28;20284;-59
2022/06/25 01:48:16;;;;;;;14.57;8.07;;;;;;;19.64;74.52;98554.78;5044336;28;20291;-59
2022/06/25 01:50:46;;;;;;;25.13;12.40;;;;;;;19.61;74.74;98563.84;5044423;28;20344;-59
2022/06/25 01:53:18;;;;;;;21.43;11.23;;;;;;;19.55;75.93;98567.00;5043258;28;20315;-60
2022/06/25 01:55:49;;;;;;;13.57;7.57;;;;;;;19.55;76.67;98567.00;5043797;28;20602;-59
2022/06/25 01:58:19;;;;;;;8.53;2.80;;;;;;;19.54;77.19;98575.88;5044190;28;20287;-60
2022/06/25 02:00:50;;;;;;;8.00;2.90;;;;;;;19.25;78.17;98539.34;5044146;28;20279;-59
2022/06/25 02:03:21;;;;;;;4.00;2.00;;;;;;;19.51;78.60;98581.44;5043813;28;20917;-60
2022/06/25 02:06:00;;;;;;;2.63;1.37;;;;;;;19.52;78.68;98573.38;5043786;28;20287;-60
2022/06/25 02:08:36;;;;;;;3.73;1.40;;;;;;;19.53;79.29;98579.50;5043766;28;20290;-60
2022/06/25 02:11:08;;;;;;;3.50;1.20;;;;;;;19.56;79.51;98579.25;5043617;28;20594;-60
2022/06/25 02:13:39;;;;;;;5.73;1.20;;;;;;;19.49;79.61;98564.81;5043727;28;20304;-60
2022/06/25 02:16:10;;;;;;;2.90;1.00;;;;;;;19.58;79.36;98564.09;5043996;28;20299;-60
2022/06/25 02:18:41;;;;;;;3.20;1.37;;;;;;;19.79;80.08;98554.44;5044052;28;20288;-60
2022/06/25 02:21:12;;;;;;;9.03;1.10;;;;;;;20.01;79.45;98547.34;5044064;28;20283;-60
2022/06/25 02:23:44;;;;;;;4.23;1.00;;;;;;;20.33;78.39;98535.88;5043962;28;20283;-60
2022/06/25 02:26:14;;;;;;;6.43;1.20;;;;;;;20.67;76.08;98534.72;5043620;28;20291;-59
2022/06/25 02:28:45;;;;;;;4.07;1.90;;;;;;;20.91;75.61;98552.16;5043340;28;20485;-59
2022/06/25 02:31:16;;;;;;;4.83;1.40;;;;;;;21.15;75.32;98556.34;5043574;28;20279;-60
2022/06/25 02:33:46;;;;;;;4.63;1.07;;;;;;;21.27;74.76;98555.28;5043335;28;20312;-60
2022/06/25 02:36:17;;;;;;;1.97;1.10;;;;;;;21.31;73.61;98554.84;5043444;28;20286;-60
2022/06/25 02:38:49;;;;;;;5.60;1.20;;;;;;;21.48;72.84;98552.56;5043347;28;20705;-60
2022/06/25 02:41:20;;;;;;;5.93;1.70;;;;;;;21.78;73.11;98541.00;5043351;28;20645;-60
2022/06/25 02:43:50;;;;;;;5.80;1.67;;;;;;;22.04;72.50;98549.28;5042979;28;20288;-60
2022/06/25 02:46:21;;;;;;;4.50;1.10;;;;;;;22.32;71.45;98536.13;5043323;28;20283;-60
2022/06/25 02:48:52;;;;;;;3.50;1.00;;;;;;;22.36;70.25;98543.66;5043267;28;20295;-60
2022/06/25 02:51:22;;;;;;;2.93;1.10;;;;;;;22.43;69.18;98551.09;5043039;28;20268;-60
2022/06/25 02:53:55;;;;;;;8.23;2.20;;;;;;;22.44;69.67;98550.09;5043362;28;20348;-60
2022/06/25 02:59:13;;;;;;;4.17;2.10;;;;;;;22.28;68.97;98548.03;5043293;28;20362;-60
2022/06/25 03:01:43;;;;;;;5.23;1.50;;;;;;;22.44;68.84;98537.66;5042909;28;20642;-60
2022/06/25 03:04:14;;;;;;;2.63;1.77;;;;;;;22.80;68.28;98541.34;5042795;28;20065;-60
2022/06/25 03:06:45;;;;;;;3.03;1.20;;;;;;;22.81;67.71;98551.03;5043238;28;20057;-60
2022/06/25 03:09:17;;;;;;;6.60;2.43;;;;;;;22.77;68.04;98549.63;5043067;28;20295;-60
2022/06/25 03:11:48;;;;;;;1.47;1.10;;;;;;;22.66;66.70;98551.63;5042875;28;20057;-59
2022/06/25 03:14:19;;;;;;;2.10;1.00;;;;;;;22.54;67.14;98548.25;5042778;28;20053;-60
2022/06/25 03:16:49;;;;;;;0.93;0.80;;;;;;;22.37;66.67;98548.03;5043035;28;20060;-59
2022/06/25 03:19:20;;;;;;;2.90;1.10;;;;;;;22.42;67.65;98549.44;5043040;28;20347;-59
2022/06/25 03:21:50;;;;;;;1.80;1.10;;;;;;;22.44;68.35;98552.78;5042856;28;20332;-59
2022/06/25 03:24:23;;;;;;;2.73;1.70;;;;;;;22.33;68.14;98551.13;5043033;28;20067;-59
2022/06/25 03:26:53;;;;;;;4.50;1.10;;;;;;;22.04;67.88;98529.81;5042820;28;20060;-59
2022/06/25 03:29:24;;;;;;;2.97;1.30;;;;;;;21.88;68.60;98556.97;5042757;28;20056;-60
2022/06/25 03:31:56;;;;;;;2.57;1.90;;;;;;;21.54;69.20;98559.97;5042728;28;20050;-60
2022/06/25 03:34:26;;;;;;;2.03;1.30;;;;;;;21.26;70.07;98556.22;5042790;28;20064;-60
2022/06/25 03:36:57;;;;;;;7.73;2.47;;;;;;;21.07;71.01;98549.03;5042944;28;20324;-57
2022/06/25 03:39:29;;;;;;;6.50;2.60;;;;;;;20.93;71.80;98560.84;5042840;28;20337;-59
2022/06/25 03:42:00;;;;;;;6.27;2.53;;;;;;;20.84;72.44;98551.00;5042676;28;20677;-59
2022/06/25 03:44:31;;;;;;;6.57;2.53;;;;;;;20.83;72.91;98552.81;5042544;28;20293;-59
2022/06/25 03:47:01;;;;;;;9.50;2.40;;;;;;;20.88;73.50;98565.72;5042447;28;20296;-59
2022/06/25 03:49:32;;;;;;;5.57;2.90;;;;;;;20.97;73.32;98562.28;5042554;28;20287;-58
2022/06/25 03:52:03;;;;;;;5.93;2.70;;;;;;;20.97;73.67;98550.81;5042588;28;20276;-58
2022/06/25 03:54:35;;;;;;;4.63;1.83;;;;;;;21.10;73.73;98552.25;5042604;28;20307;-59
2022/06/25 03:57:06;;;;;;;7.20;2.17;;;;;;;21.19;73.91;98549.75;5042469;28;20292;-59
2022/06/25 03:59:37;;;;;;;4.53;2.20;;;;;;;21.31;73.68;98543.38;5042379;28;20310;-59
2022/06/25 04:02:08;;;;;;;5.77;2.23;;;;;;;21.38;72.95;98543.69;5042292;28;20613;-60
2022/06/25 04:04:38;;;;;;;4.23;1.77;;;;;;;21.51;72.17;98545.13;5042624;28;20308;-60
2022/06/25 04:07:09;;;;;;;5.90;1.63;;;;;;;21.81;71.18;98535.38;5042645;28;20680;-60
2022/06/25 04:09:41;;;;;;;5.27;1.90;;;;;;;22.25;71.84;98538.50;5042410;28;20277;-59
2022/06/25 04:12:13;;;;;;;6.00;2.60;;;;;;;22.90;70.86;98543.16;5042400;28;20279;-60
2022/06/25 04:14:44;;;;;;;8.30;2.40;;;;;;;22.98;69.06;98545.94;5042692;28;20072;-60
2022/06/25 04:17:15;;;;;;;9.97;2.53;;;;;;;22.82;68.33;98549.19;5044958;28;20288;-58
2022/06/25 04:19:45;;;;;;;4.53;1.80;;;;;;;22.50;68.20;98542.41;5046220;28;20383;-59
2022/06/25 04:22:16;;;;;;;6.93;1.40;;;;;;;22.25;69.18;98559.81;5046138;28;20284;-59
2022/06/25 04:24:48;;;;;;;5.23;1.20;;;;;;;22.06;69.17;98565.91;5046200;28;20100;-59
2022/06/25 04:30:03;;;;;;;12.97;2.10;;;;;;;21.56;69.31;98562.50;5044968;28;20060;-59
2022/06/25 04:32:34;;;;;;;3.37;1.77;;;;;;;21.47;70.48;98562.34;5045654;28;20339;-59
2022/06/25 04:35:04;;;;;;;7.10;2.30;;;;;;;21.47;71.07;98565.00;5045349;28;20311;-59
2022/06/25 04:37:35;;;;;;;8.60;2.10;;;;;;;21.45;70.21;98561.63;5045604;28;20351;-58
2022/06/25 04:40:09;;;;;;;5.63;1.60;;;;;;;21.56;70.17;98563.34;5045506;28;20361;-58
2022/06/25 04:42:39;;;;;;;8.00;1.83;;;;;;;21.54;70.29;98576.78;5045279;28;20045;-59
2022/06/25 04:45:11;;;;;;;9.37;2.20;;;;;;;21.38;70.42;98576.41;5045563;28;20518;-59
2022/06/25 04:47:41;;;;;;;5.60;1.90;;;;;;;21.36;70.46;98562.41;5045467;28;20101;-59
2022/06/25 04:50:12;;;;;;;5.60;2.20;;;;;;;21.31;71.09;98554.00;5045585;28;20061;-60
2022/06/25 04:52:42;;;;;;;3.93;1.90;;;;;;;21.15;71.29;98559.00;5045045;28;20338;-60
2022/06/25 04:55:15;;;;;;;7.30;2.20;;;;;;;21.02;71.28;98576.00;5045387;28;20300;-60
2022/06/25 04:57:45;;;;;;;10.23;2.50;;;;;;;20.94;71.72;98586.41;5045273;28;20300;-59
2022/06/25 05:00:17;;;;;;;8.83;2.30;;;;;;;20.83;71.35;98591.81;5045539;28;20342;-59
2022/06/25 05:02:47;;;;;;;5.13;2.13;;;;;;;20.88;71.66;98581.63;5045092;28;20295;-59
2022/06/25 05:05:18;;;;;;;6.27;2.10;;;;;;;20.99;71.72;98576.25;5045423;28;20284;-63
2022/06/25 05:07:48;;;;;;;7.60;2.30;;;;;;;21.05;71.67;98586.34;5045220;28;20280;-60
2022/06/25 05:10:21;;;;;;;4.50;2.03;;;;;;;21.20;71.59;98588.66;5045388;28;20356;-60
2022/06/25 05:15:39;;;;;;;7.37;1.80;;;;;;;21.03;71.90;98598.91;5044582;28;20394;-60
2022/06/25 05:18:11;;;;;;;6.27;2.03;;;;;;;20.84;72.17;98606.75;5044880;28;20303;-60
2022/06/25 05:20:42;;;;;;;4.67;1.67;;;;;;;20.59;72.58;98616.81;5044874;28;20341;-59
2022/06/25 05:23:14;;;;;;;6.37;2.17;;;;;;;20.35;73.36;98640.03;5044596;28;20291;-60
2022/06/25 05:25:46;;;;;;;6.03;2.67;;;;;;;20.12;74.12;98642.78;5044614;28;20302;-60
2022/06/25 05:28:17;;;;;;;4.47;2.03;;;;;;;19.80;74.76;98632.13;5044544;28;20284;-60
2022/06/25 05:30:47;;;;;;;6.37;2.40;;;;;;;19.57;75.69;98632.13;5044922;28;20299;-60
2022/06/25 05:33:18;;;;;;;11.53;2.33;;;;;;;19.42;76.31;98627.19;5045185;28;20292;-61
2022/06/25 05:35:48;;;;;;;6.50;2.27;;;;;;;19.28;77.30;98634.41;5044739;28;20699;-60
2022/06/25 05:38:19;;;;;;;7.57;2.13;;;;;;;19.20;79.12;98615.66;5044626;28;20292;-62
2022/06/25 05:40:51;;;;;;;13.90;2.47;;;;;;;19.32;80.96;98609.38;5044407;28;20292;-60
2022/06/25 05:43:22;;;;;;;6.67;2.00;;;;;;;19.91;82.64;98596.78;5044480;28;20279;-62
2022/06/25 05:45:53;;;;;;;3.40;2.10;;;;;;;20.51;83.59;98597.16;5043036;28;20300;-62
2022/06/25 05:48:23;;;;;;;7.43;2.10;;;;;;;20.95;81.44;98596.06;5044176;28;20374;-61
2022/06/25 05:50:54;;;;;;;7.03;1.77;;;;;;;21.33;80.34;98595.41;5044066;28;20371;-62
2022/06/25 05:53:25;;;;;;;4.60;1.80;;;;;;;21.41;78.70;98597.41;5043682;28;20288;-60
2022/06/25 05:55:57;;;;;;;3.67;1.70;;;;;;;21.74;79.53;98604.25;5044211;28;20303;-63
2022/06/25 05:58:27;;;;;;;3.70;1.73;;;;;;;21.90;78.63;98606.38;5041915;28;20314;-62
2022/06/25 06:00:58;;;;;;;3.50;1.90;;;;;;;21.80;76.19;98596.69;5043559;28;20327;-62
2022/06/25 06:03:29;;;;;;;4.40;1.63;;;;;;;21.75;75.38;98586.47;5043609;28;20292;-61
2022/06/25 06:05:59;;;;;;;2.80;1.60;;;;;;;21.56;74.69;98594.38;5042330;28;20303;-59
2022/06/25 06:08:30;;;;;;;6.10;1.90;;;;;;;21.39;75.58;98599.38;5041217;28;20329;-62
2022/06/25 06:11:02;;;;;;;6.53;1.90;;;;;;;21.39;76.51;98599.38;5044000;28;20591;-60
2022/06/25 06:13:33;;;;;;;4.13;2.00;;;;;;;21.37;76.29;98588.03;5042908;28;20378;-63
2022/06/25 06:16:03;;;;;;;3.47;2.00;;;;;;;21.25;76.29;98586.44;5043487;28;20384;-60
2022/06/25 06:18:34;;;;;;;3.87;1.60;;;;;;;21.15;76.09;98585.56;5043013;28;20298;-60
2022/06/25 06:21:05;;;;;;;4.67;2.27;;;;;;;21.41;76.45;98570.84;5042725;28;20304;-60
2022/06/25 06:23:35;;;;;;;3.53;1.70;;;;;;;21.57;76.33;98564.16;5043525;28;20295;-60
2022/06/25 06:26:07;;;;;;;3.70;1.87;;;;;;;21.59;75.36;98514.38;5043410;28;20280;-60
2022/06/25 06:28:38;;;;;;;4.50;1.90;;;;;;;22.11;75.05;98568.16;5043405;28;20296;-59
2022/06/25 06:31:08;;;;;;;6.17;2.00;;;;;;;22.08;74.25;98557.81;5043034;28;20553;-60
2022/06/25 06:33:39;;;;;;;2.33;1.50;;;;;;;21.90;74.03;98561.16;5043663;28;20061;-60
2022/06/25 06:36:10;;;;;;;6.73;2.13;;;;;;;21.77;74.56;98560.59;5043366;28;20135;-60
2022/06/25 06:38:40;;;;;;;4.60;1.87;;;;;;;21.57;74.91;98553.53;5042470;28;20282;-60
2022/06/25 06:41:13;;;;;;;2.67;1.70;;;;;;;21.33;75.36;98552.06;5043194;28;20602;-61
2022/06/25 06:43:44;;;;;;;2.07;1.30;;;;;;;20.98;76.02;98542.69;5042937;28;20288;-61
2022/06/25 06:46:14;;;;;;;3.67;1.70;;;;;;;20.72;77.00;98546.75;5043131;28;20328;-62
2022/06/25 06:48:45;;;;;;;4.17;1.93;;;;;;;20.52;77.80;98548.41;5042602;28;20303;-60
2022/06/25 06:51:16;;;;;;;3.67;1.80;;;;;;;20.30;78.62;98557.38;5043366;28;20302;-60
2022/06/25 06:53:46;;;;;;;4.23;2.60;;;;;;;20.17;79.44;98547.78;5043183;28;20291;-60
2022/06/25 06:56:18;;;;;;;4.43;3.30;;;;;;;20.07;80.46;98552.16;5043028;28;20315;-60
2022/06/25 06:58:49;;;;;;;11.60;8.83;;;;;;;20.00;81.00;98551.81;5042616;28;20999;-60
2022/06/25 07:01:20;;;;;;;8.63;6.47;;;;;;;19.92;81.23;98553.41;5043435;28;20347;-61
2022/06/25 07:03:50;;;;;;;18.13;14.17;;;;;;;19.80;81.43;98550.81;5042829;28;20376;-60
2022/06/25 07:06:21;;;;;;;8.13;7.30;;;;;;;19.71;81.70;98546.25;5043340;28;20621;-60
2022/06/25 07:08:51;;;;;;;5.47;3.80;;;;;;;19.63;81.98;98559.25;5043239;28;20291;-61
2022/06/25 07:11:30;;;;;;;6.03;5.00;;;;;;;19.58;82.15;98556.13;5043216;28;20303;-60
2022/06/25 07:14:04;;;;;;;5.90;3.37;;;;;;;19.51;82.81;98561.06;5042712;28;20363;-60
2022/06/25 07:16:35;;;;;;;5.20;4.70;;;;;;;19.47;82.93;98558.78;5043127;28;20554;-60
2022/06/25 07:19:06;;;;;;;7.00;3.30;;;;;;;19.44;83.46;98559.03;5043045;28;20347;-60
2022/06/25 07:21:36;;;;;;;4.43;2.70;;;;;;;19.37;83.49;98561.38;5042602;28;20299;-60
2022/06/25 07:24:07;;;;;;;7.90;5.17;;;;;;;19.30;83.44;98555.69;5042788;28;20726;-60
2022/06/25 07:26:40;;;;;;;27.50;19.53;;;;;;;19.27;83.82;98557.72;5042632;28;20330;-60
2022/06/25 07:29:10;;;;;;;7.30;5.30;;;;;;;19.22;83.94;98552.81;5043058;28;20291;-61
2022/06/25 07:31:41;;;;;;;11.17;7.13;;;;;;;19.26;84.13;98567.50;5042215;28;20296;-60
2022/06/25 07:34:17;;;;;;;15.90;11.07;;;;;;;19.20;84.17;98561.84;5042951;28;20308;-60
2022/06/25 07:36:49;;;;;;;11.87;6.83;;;;;;;19.13;84.02;98572.06;5042643;28;20302;-59
2022/06/25 07:39:20;;;;;;;5.30;4.00;;;;;;;19.05;84.52;98559.44;5042266;28;20284;-60
2022/06/25 07:41:53;;;;;;;8.27;2.40;;;;;;;19.05;84.60;98554.16;5041651;28;20294;-60
2022/06/25 07:44:23;;;;;;;17.77;9.53;;;;;;;19.09;84.65;98565.31;5041960;28;20291;-60
2022/06/25 07:46:54;;;;;;;20.50;14.17;;;;;;;19.10;84.97;98561.75;5041800;28;20289;-60
2022/06/25 07:49:25;;;;;;;8.40;5.80;;;;;;;19.05;85.25;98571.84;5042986;28;20287;-60
2022/06/25 07:51:57;;;;;;;8.43;6.43;;;;;;;19.00;85.41;98574.84;5046376;28;20456;-60
2022/06/25 07:54:29;;;;;;;9.37;3.20;;;;;;;18.96;85.28;98571.56;5044723;28;20296;-59
2022/06/25 07:57:01;;;;;;;10.10;3.80;;;;;;;18.93;85.30;98577.13;5046290;28;20310;-61
2022/06/25 07:59:32;;;;;;;8.20;4.00;;;;;;;18.87;85.47;98588.19;5046095;28;20638;-60
2022/06/25 08:02:03;;;;;;;7.20;3.87;;;;;;;18.79;85.54;98590.56;5046309;28;20349;-59
2022/06/25 08:04:33;;;;;;;26.60;18.17;;;;;;;18.72;85.58;98605.19;5045640;28;20298;-59
2022/06/25 08:07:05;;;;;;;13.47;9.00;;;;;;;18.67;85.63;98612.63;5046012;28;20327;-60
2022/06/25 08:09:35;;;;;;;11.87;7.17;;;;;;;18.60;85.75;98611.44;5045843;28;20284;-60
2022/06/25 08:12:10;;;;;;;8.90;7.17;;;;;;;18.53;85.91;98622.47;5046102;28;20590;-60
2022/06/25 08:14:41;;;;;;;7.97;4.47;;;;;;;18.51;86.34;98621.72;5046201;28;20390;-60
2022/06/25 08:17:11;;;;;;;8.10;3.83;;;;;;;18.48;86.64;98627.25;5044127;28;20362;-60
2022/06/25 08:19:42;;;;;;;8.47;4.23;;;;;;;18.42;87.09;98635.66;5041412;28;20358;-60
2022/06/25 08:22:12;;;;;;;8.00;3.00;;;;;;;18.36;87.18;98630.81;5045268;28;20287;-60
2022/06/25 08:24:43;;;;;;;11.93;8.43;;;;;;;18.35;87.45;98641.53;5045683;28;20626;-60
2022/06/25 08:27:15;;;;;;;9.07;7.13;;;;;;;18.32;87.59;98645.22;5045971;28;20283;-61
2022/06/25 08:29:46;;;;;;;9.13;3.47;;;;;;;18.29;87.65;98645.44;5045386;28;20295;-59
2022/06/25 08:32:17;;;;;;;8.20;3.63;;;;;;;18.29;87.91;98661.31;5045778;28;20342;-61
2022/06/25 08:34:48;;;;;;;5.50;3.50;;;;;;;18.28;87.89;98649.06;5045438;28;20490;-61
2022/06/25 08:37:19;;;;;;;6.10;2.93;;;;;;;18.26;87.75;98661.53;5045648;28;20312;-61
2022/06/25 08:39:49;;;;;;;11.20;3.10;;;;;;;18.26;87.61;98672.13;5045221;28;20610;-59
2022/06/25 08:42:22;;;;;;;17.27;13.73;;;;;;;18.26;87.72;98669.47;5042874;28;20334;-60
2022/06/25 08:44:52;;;;;;;16.80;10.73;;;;;;;18.24;87.68;98668.75;5045616;28;20347;-59
2022/06/25 08:47:23;;;;;;;9.37;7.60;;;;;;;18.20;87.96;98667.28;5045074;28;20644;-59
2022/06/25 08:49:54;;;;;;;16.23;4.90;;;;;;;17.66;88.12;98584.78;5045546;28;20366;-60
2022/06/25 08:52:26;;;;;;;5.50;3.80;;;;;;;18.19;88.29;98661.13;5045147;28;20623;-59
2022/06/25 08:54:58;;;;;;;6.80;5.53;;;;;;;18.18;88.47;98654.19;5045513;28;20295;-60
2022/06/25 08:57:32;;;;;;;7.97;4.20;;;;;;;18.18;88.40;98661.28;5045236;28;20311;-59
2022/06/25 09:00:03;;;;;;;8.37;4.20;;;;;;;18.17;88.49;98656.91;5044884;28;20623;-59
2022/06/25 09:02:40;;;;;;;6.50;4.57;;;;;;;18.18;88.52;98663.91;5044447;28;20357;-59
2022/06/25 09:05:11;;;;;;;21.70;15.17;;;;;;;18.19;88.51;98669.06;5045164;28;20346;-60
2022/06/25 09:07:54;;;;;;;8.47;7.03;;;;;;;18.22;88.77;98670.66;5045066;28;20283;-60
2022/06/25 09:10:26;;;;;;;8.97;4.73;;;;;;;18.23;88.71;98682.94;5045073;28;20283;-59
2022/06/25 09:13:00;;;;;;;6.13;3.20;;;;;;;18.22;88.71;98686.50;5045225;28;20283;-59
2022/06/25 09:15:33;;;;;;;4.50;2.83;;;;;;;18.20;88.66;98696.38;5043583;28;20284;-58
2022/06/25 09:18:08;;;;;;;6.37;3.57;;;;;;;18.16;88.74;98700.19;5044445;28;20287;-58
2022/06/25 09:20:57;;;;;;;19.20;4.30;;;;;;;18.14;88.81;98699.44;5042814;28;20906;-60
2022/06/25 09:23:28;;;;;;;7.40;3.93;;;;;;;18.11;88.74;98706.63;5044127;28;20280;-58
2022/06/25 09:26:07;;;;;;;7.63;4.10;;;;;;;18.07;88.87;98688.47;5043240;28;20312;-59
2022/06/25 09:28:42;;;;;;;8.20;4.73;;;;;;;18.03;88.85;98687.00;5043350;28;20350;-58
2022/06/25 09:31:13;;;;;;;7.20;3.83;;;;;;;18.12;88.87;98694.25;5043729;28;20284;-61
2022/06/25 09:33:44;;;;;;;8.23;3.80;;;;;;;18.13;88.73;98700.41;5044780;28;20283;-59
2022/06/25 09:36:15;;;;;;;5.97;4.00;;;;;;;18.09;88.62;98692.69;5044791;28;20295;-59
2022/06/25 09:38:50;;;;;;;8.77;3.60;;;;;;;18.07;88.52;98704.31;5044627;28;20283;-59
2022/06/25 09:41:24;;;;;;;6.53;3.70;;;;;;;18.01;88.82;98716.19;5044476;28;20276;-59
2022/06/25 09:43:57;;;;;;;8.70;4.13;;;;;;;17.98;89.06;98716.41;5044552;28;20284;-60
2022/06/25 09:46:27;;;;;;;6.97;3.60;;;;;;;17.95;89.23;98727.22;5044596;28;20538;-60
2022/06/25 09:48:58;;;;;;;9.20;4.20;;;;;;;17.91;89.04;98728.38;5044214;28;20312;-59
2022/06/25 09:51:30;;;;;;;9.77;3.77;;;;;;;17.88;89.23;98731.25;5044166;28;20463;-59
2022/06/25 09:54:03;;;;;;;7.97;4.47;;;;;;;17.85;89.33;98726.19;5044014;28;20285;-60
2022/06/25 09:56:35;;;;;;;5.80;3.40;;;;;;;17.83;89.38;98728.06;5043410;28;20811;-59
2022/06/25 09:59:08;;;;;;;5.33;3.40;;;;;;;17.81;89.41;98728.19;5043441;28;20581;-59
2022/06/25 10:01:40;;;;;;;5.30;3.30;;;;;;;17.79;89.46;98737.13;5043749;28;20286;-59
2022/06/25 10:04:11;;;;;;;5.50;3.20;;;;;;;17.77;89.46;98728.47;5043574;28;20302;-60
2022/06/25 10:06:43;;;;;;;4.43;2.87;;;;;;;17.73;89.63;98724.38;5043916;28;20340;-59
2022/06/25 10:09:16;;;;;;;5.17;2.80;;;;;;;17.71;89.51;98729.75;5043589;28;20292;-59
2022/06/25 10:11:46;;;;;;;5.30;2.80;;;;;;;17.66;89.33;98732.69;5043351;28;20280;-59
2022/06/25 10:14:19;;;;;;;7.80;3.20;;;;;;;17.62;89.51;98736.53;5042589;28;20284;-60
2022/06/25 10:16:52;;;;;;;5.13;3.40;;;;;;;17.61;89.72;98744.56;5043609;28;20320;-60
2022/06/25 10:19:26;;;;;;;11.47;3.17;;;;;;;17.56;89.99;98752.78;5043555;28;20605;-60
2022/06/25 10:21:57;;;;;;;5.57;3.60;;;;;;;17.56;89.98;98747.50;5043736;28;20284;-60
2022/06/25 10:24:29;;;;;;;6.90;3.10;;;;;;;17.53;90.13;98758.28;5043421;28;21233;-60
2022/06/25 10:26:59;;;;;;;5.87;3.00;;;;;;;17.46;90.24;98751.72;5043423;28;20280;-60
2022/06/25 10:29:32;;;;;;;4.90;2.60;;;;;;;17.49;90.34;98772.66;5042959;28;20283;-59
2022/06/25 10:32:16;;;;;;;5.77;2.97;;;;;;;17.49;90.21;98767.38;5041858;28;20280;-59
2022/06/25 10:35:04;;;;;;;5.30;2.80;;;;;;;17.49;90.17;98772.66;5043330;28;20296;-59
2022/06/25 10:38:04;;;;;;;6.63;2.72;;;;;;;17.42;90.13;98766.09;5043090;28;20334;-60
2022/06/25 10:40:47;;;;;;;6.90;2.80;;;;;;;17.27;89.79;98756.56;5043196;28;20061;-59
2022/06/25 10:43:43;;;;;;;8.13;2.77;;;;;;;17.50;89.88;98790.19;5042982;28;20605;-60
2022/06/25 10:46:29;;;;;;;5.17;2.90;;;;;;;17.48;89.72;98796.53;5042923;28;20295;-59
2022/06/25 10:49:07;;;;;;;5.63;2.47;;;;;;;17.28;89.57;98774.13;5042791;28;20319;-59
2022/06/25 10:51:43;;;;;;;6.78;3.50;;;;;;;17.45;89.70;98808.16;5042566;28;21136;-60
2022/06/25 10:54:36;;;;;;;6.63;2.93;;;;;;;17.42;89.69;98803.06;5042517;28;20121;-60
2022/06/25 10:57:07;;;;;;;12.13;5.57;;;;;;;17.41;90.07;98812.78;5041893;28;20554;-59
2022/06/25 10:59:48;;;;;;;8.13;3.43;;;;;;;17.42;90.20;98818.91;5041559;28;20334;-60
2022/06/25 11:02:23;;;;;;;9.97;3.57;;;;;;;17.42;90.12;98818.91;5041410;28;20798;-59
2022/06/25 11:04:55;;;;;;;8.50;3.63;;;;;;;17.40;90.18;98823.47;5041320;28;20303;-59
2022/06/25 11:07:28;;;;;;;9.37;4.00;;;;;;;17.39;90.44;98824.38;5040957;28;20292;-60
2022/06/25 11:10:01;;;;;;;12.57;3.90;;;;;;;17.34;90.58;98821.22;5039869;28;20331;-59
2022/06/25 11:12:34;;;;;;;24.33;9.90;;;;;;;17.36;90.70;98824.59;5042804;28;20348;-59
2022/06/25 11:15:08;;;;;;;11.77;5.20;;;;;;;17.40;90.53;98826.94;5042578;28;20355;-59
2022/06/25 11:17:40;;;;;;;35.57;17.63;;;;;;;17.38;90.81;98822.72;5042576;28;20319;-59
2022/06/25 11:20:12;;;;;;;14.60;7.43;;;;;;;17.35;91.11;98815.84;5042590;28;20280;-60
2022/06/25 11:22:50;;;;;;;19.53;9.47;;;;;;;17.31;91.18;98821.44;5041062;28;20303;-59
2022/06/25 11:30:56;;;;;;;9.80;5.20;;;;;;;17.04;92.06;98806.47;5047034;28;20295;-59
2022/06/25 11:33:28;;;;;;;12.03;6.13;;;;;;;17.13;92.50;98808.50;5045779;28;20298;-59
2022/06/25 11:36:09;;;;;;;15.00;6.57;;;;;;;17.10;92.94;98814.00;5044778;28;20521;-58
2022/06/25 11:38:41;;;;;;;15.10;8.33;;;;;;;17.07;93.31;98811.53;5046387;28;20379;-59
2022/06/25 11:41:22;;;;;;;14.27;6.90;;;;;;;17.03;93.58;98810.91;5045553;28;20287;-59
2022/06/25 11:43:53;;;;;;;11.10;6.50;;;;;;;17.01;93.73;98809.31;5046513;28;20282;-60
2022/06/25 11:46:24;;;;;;;16.57;8.40;;;;;;;16.98;94.11;98814.81;5046479;28;20603;-60
2022/06/25 11:48:59;;;;;;;13.73;8.43;;;;;;;16.98;94.20;98813.00;5046917;28;20680;-60
2022/06/25 11:51:30;;;;;;;17.93;10.43;;;;;;;16.95;94.26;98815.00;5045973;28;20280;-62
2022/06/25 11:54:06;;;;;;;17.33;11.27;;;;;;;16.92;94.53;98820.47;5046342;28;20272;-60
2022/06/25 11:56:36;;;;;;;17.93;10.27;;;;;;;16.88;94.77;98816.34;5046263;28;20309;-60
2022/06/25 11:59:07;;;;;;;17.30;11.30;;;;;;;16.86;94.93;98826.16;5046253;28;20312;-60
2022/06/25 12:01:38;;;;;;;18.37;11.27;;;;;;;16.82;95.16;98809.66;5046066;28;20284;-61
2022/06/25 12:04:10;;;;;;;20.03;11.57;;;;;;;16.76;95.58;98816.16;5045383;28;20311;-60
2022/06/25 12:06:41;;;;;;;17.97;10.70;;;;;;;16.74;95.56;98812.78;5045944;28;20580;-60
2022/06/25 12:09:11;;;;;;;15.97;10.40;;;;;;;16.67;95.69;98810.63;5045990;28;20280;-62
2022/06/25 12:11:53;;;;;;;18.10;9.77;;;;;;;16.63;95.96;98825.81;5045466;28;20300;-61